Time;durP1;ratioP1;P1;durP2;ratioP2;P2;SDS_P1;SDS_P2;PMS_P1;PMS_P2;Temp;Humidity;BMP_temperature;BMP_pressure;BME280_temperature;BME280_humidity;BME280_pressure;Samples;Min_cycle;Max_cycle;Signal;HPM_P1;HPM_P2
2021/12/15 00:01:28;;;;;;;49.63;26.92;;;;;;;1.09;82.20;100973.19;4433704;32;34654;-78
2021/12/15 00:04:15;;;;;;;49.22;26.05;;;;;;;1.17;80.94;100972.09;4434859;32;34906;-78
2021/12/15 00:07:00;;;;;;;46.65;24.75;;;;;;;1.04;82.28;100974.88;4433171;32;34958;-78
2021/12/15 00:09:48;;;;;;;46.78;24.60;;;;;;;1.00;81.61;100965.56;4434159;32;35199;-77
2021/12/15 00:12:34;;;;;;;46.40;23.98;;;;;;;1.77;79.75;100972.53;4434990;32;34264;-78
2021/12/15 00:15:22;;;;;;;49.35;24.25;;;;;;;1.75;78.50;100961.09;4433027;32;35477;-78
2021/12/15 00:18:11;;;;;;;49.13;24.92;;;;;;;1.07;81.13;100963.63;4435052;32;34796;-78
2021/12/15 00:20:58;;;;;;;49.88;26.95;;;;;;;1.63;79.50;100962.87;4433111;32;34495;-78
2021/12/15 00:23:45;;;;;;;55.55;29.17;;;;;;;2.09;78.00;100956.22;4433658;32;34525;-78
2021/12/15 00:26:31;;;;;;;60.70;31.75;;;;;;;0.70;81.83;100960.69;4434006;32;34801;-78
2021/12/15 00:29:21;;;;;;;60.17;31.23;;;;;;;1.51;79.89;100959.22;4433529;32;34336;-78
2021/12/15 00:32:08;;;;;;;58.53;32.00;;;;;;;1.84;77.89;100955.41;4433434;32;34065;-78
2021/12/15 00:34:54;;;;;;;57.10;32.47;;;;;;;1.07;80.79;100960.94;4433988;32;35534;-78
2021/12/15 00:37:41;;;;;;;64.37;31.17;;;;;;;1.49;79.49;100964.00;4434598;32;33896;-78
2021/12/15 00:40:28;;;;;;;57.03;29.40;;;;;;;1.80;77.60;100969.37;4434539;32;34351;-78
2021/12/15 00:43:14;;;;;;;56.13;31.40;;;;;;;1.32;79.00;100977.22;4423333;32;34167;-78
2021/12/15 00:46:01;;;;;;;53.45;29.58;;;;;;;1.56;79.42;100979.09;4432237;32;35499;-78
2021/12/15 00:48:49;;;;;;;56.90;29.58;;;;;;;1.68;78.08;100987.34;4433530;32;34943;-78
2021/12/15 00:51:38;;;;;;;59.97;32.25;;;;;;;2.10;76.65;100979.50;4434890;32;34643;-78
2021/12/15 00:54:25;;;;;;;57.38;31.62;;;;;;;2.03;76.66;100982.28;4434656;32;35153;-78
2021/12/15 00:57:12;;;;;;;54.45;29.37;;;;;;;2.44;75.39;100986.25;4434949;32;35222;-78
2021/12/15 00:59:59;;;;;;;59.03;30.52;;;;;;;1.28;79.04;100982.22;4434016;32;34640;-78
2021/12/15 01:02:46;;;;;;;57.92;32.33;;;;;;;0.74;81.92;100988.06;4434722;32;34635;-78
2021/12/15 01:05:37;;;;;;;51.20;28.62;;;;;;;0.90;81.01;100984.88;4433188;32;34272;-78
2021/12/15 01:08:28;;;;;;;58.13;30.37;;;;;;;1.50;79.11;100990.78;4434276;32;35616;-78
2021/12/15 01:11:25;;;;;;;56.35;29.20;;;;;;;1.82;76.95;100998.88;4434125;32;36045;-78
2021/12/15 01:14:33;;;;;;;53.58;28.70;;;;;;;2.05;76.44;100992.87;4432621;32;34467;-78
2021/12/15 01:20:50;;;;;;;47.88;26.23;;;;;;;1.94;74.95;100997.13;4377086;32;34686;-78
2021/12/15 01:23:37;;;;;;;49.67;26.90;;;;;;;1.95;74.36;100998.78;4368978;32;34550;-78
2021/12/15 01:26:23;;;;;;;48.40;26.00;;;;;;;1.67;75.10;101001.06;4427504;32;34679;-78
2021/12/15 01:29:13;;;;;;;49.25;25.70;;;;;;;1.40;75.76;100989.63;4433784;32;33947;-78
2021/12/15 01:32:00;;;;;;;52.92;27.08;;;;;;;1.38;75.92;100994.41;4433841;32;35533;-78
2021/12/15 01:34:47;;;;;;;44.38;23.20;;;;;;;1.50;74.73;100993.50;4433901;32;35461;-77
2021/12/15 01:37:33;;;;;;;44.72;24.42;;;;;;;1.85;74.15;100984.94;4434762;32;34666;-78
2021/12/15 01:40:33;;;;;;;46.35;25.25;;;;;;;1.87;74.56;100984.72;4434461;32;34347;-78
2021/12/15 01:49:43;;;;;;;45.92;23.92;;;;;;;1.73;74.88;100987.50;4433706;32;35154;-78
2021/12/15 01:52:34;;;;;;;46.73;23.37;;;;;;;2.26;72.45;100986.22;4432560;32;35124;-77
2021/12/15 01:55:21;;;;;;;32.42;16.50;;;;;;;1.51;74.24;100988.94;4434432;32;34740;-77
2021/12/15 01:58:07;;;;;;;43.35;23.62;;;;;;;1.77;74.59;100991.44;4432533;32;34805;-78
2021/12/15 02:01:03;;;;;;;47.00;23.87;;;;;;;1.82;74.25;100995.34;4434432;32;35715;-78
2021/12/15 02:03:51;;;;;;;46.40;23.25;;;;;;;1.36;75.92;100991.91;4432482;32;34244;-78
2021/12/15 02:06:55;;;;;;;41.67;22.37;;;;;;;1.41;75.61;100997.50;4433369;32;34581;-78
2021/12/15 02:12:34;;;;;;;46.95;23.55;;;;;;;1.85;74.13;100998.47;4432261;32;34852;-78
2021/12/15 02:15:26;;;;;;;42.00;21.52;;;;;;;1.63;74.89;100992.59;4422757;32;34447;-78
2021/12/15 02:18:13;;;;;;;;;;;;;;;1.67;74.58;100990.25;4434338;32;34294;-78
2021/12/15 02:21:11;;;;;;;41.45;20.95;;;;;;;1.64;74.71;100991.53;4433430;32;35325;-78
2021/12/15 02:23:59;;;;;;;41.78;20.40;;;;;;;1.79;73.97;100978.53;4431775;32;34257;-78
2021/12/15 02:26:50;;;;;;;42.45;22.17;;;;;;;1.78;74.31;100981.44;4433808;32;34219;-78
2021/12/15 02:29:41;;;;;;;41.55;21.87;;;;;;;1.46;75.58;100986.88;4432990;32;35455;-78
2021/12/15 02:32:46;;;;;;;41.53;20.23;;;;;;;1.30;76.74;100990.91;4432051;32;35056;-78
2021/12/15 02:38:44;;;;;;;39.97;19.85;;;;;;;1.91;74.25;100981.34;4433110;32;34272;-78
2021/12/15 02:41:31;;;;;;;39.50;20.48;;;;;;;1.57;75.26;100990.75;4431833;32;34544;-78
2021/12/15 02:44:20;;;;;;;39.88;19.70;;;;;;;2.07;74.15;100995.34;4430709;32;34755;-78
2021/12/15 02:47:06;;;;;;;37.95;19.62;;;;;;;2.01;73.64;100997.06;4432766;32;34339;-78
2021/12/15 02:49:55;;;;;;;39.17;19.83;;;;;;;1.30;76.01;100993.63;4432923;32;33799;-78
2021/12/15 02:52:41;;;;;;;36.55;19.20;;;;;;;1.94;74.89;100996.31;4432840;32;35980;-78
2021/12/15 02:55:28;;;;;;;40.05;19.52;;;;;;;2.15;73.84;100990.50;4433233;32;34852;-78
2021/12/15 02:58:14;;;;;;;37.70;19.77;;;;;;;2.15;73.02;100987.78;4431372;32;34596;-78
2021/12/15 03:01:12;;;;;;;32.13;18.15;;;;;;;2.11;73.47;100988.47;4432855;32;34860;-78
2021/12/15 03:07:02;;;;;;;35.30;19.08;;;;;;;1.08;76.93;100987.72;4431980;32;34956;-78
2021/12/15 03:15:40;;;;;;;36.45;18.33;;;;;;;2.25;73.45;100977.28;4422193;32;35473;-78
2021/12/15 03:18:28;;;;;;;34.97;19.10;;;;;;;2.28;72.64;100973.31;4419598;32;34558;-77
2021/12/15 03:21:22;;;;;;;33.42;18.42;;;;;;;2.06;73.70;100962.09;4432549;32;35236;-78
2021/12/15 03:24:14;;;;;;;35.88;18.77;;;;;;;2.10;74.46;100954.34;4421098;32;35182;-78
2021/12/15 03:27:08;;;;;;;35.78;18.90;;;;;;;2.11;73.85;100954.12;4419839;32;34653;-78
2021/12/15 03:36:12;;;;;;;37.58;20.15;;;;;;;1.29;76.46;100950.62;4432660;32;35197;-78
2021/12/15 03:38:58;;;;;;;43.60;20.58;;;;;;;0.95;78.66;100944.59;4433580;32;35605;-78
2021/12/15 03:41:44;;;;;;;41.67;20.48;;;;;;;0.48;80.67;100954.72;4433259;32;35781;-78
2021/12/15 03:44:33;;;;;;;42.45;20.98;;;;;;;0.62;81.42;100958.22;4434907;32;34526;-78
2021/12/15 03:47:29;;;;;;;43.83;20.77;;;;;;;1.38;77.80;100962.00;4433527;32;34266;-78
2021/12/15 03:50:18;;;;;;;37.75;20.37;;;;;;;1.90;75.99;100962.63;4434167;32;34722;-78
2021/12/15 03:53:05;;;;;;;42.05;21.73;;;;;;;1.93;75.16;100973.81;4421823;32;34594;-77
2021/12/15 03:55:52;;;;;;;37.88;20.02;;;;;;;1.16;77.60;100965.03;4433448;32;34525;-78
2021/12/15 03:58:38;;;;;;;39.53;21.00;;;;;;;0.16;82.57;100976.19;4433399;32;35293;-78
2021/12/15 04:01:25;;;;;;;41.85;20.70;;;;;;;0.82;80.43;100968.94;4421795;32;34653;-77
2021/12/15 04:04:11;;;;;;;38.00;19.83;;;;;;;1.46;76.92;100962.56;4434425;32;34647;-78
2021/12/15 04:06:57;;;;;;;37.55;20.05;;;;;;;1.72;76.22;100958.84;4434115;32;35354;-78
2021/12/15 04:09:45;;;;;;;37.63;19.98;;;;;;;2.08;74.33;100967.25;4434413;32;34104;-78
2021/12/15 04:12:31;;;;;;;35.67;18.65;;;;;;;2.18;73.54;100973.81;4422066;32;34643;-78
2021/12/15 04:18:10;;;;;;;38.45;19.73;;;;;;;2.31;72.17;100977.47;4432910;32;34708;-78
2021/12/15 04:20:57;;;;;;;36.38;18.80;;;;;;;2.18;72.50;100991.91;4434840;32;33985;-78
2021/12/15 04:23:55;;;;;;;37.15;19.60;;;;;;;2.16;72.63;100989.47;4434011;32;34699;-77
2021/12/15 04:26:43;;;;;;;34.60;18.52;;;;;;;2.29;72.27;100974.97;4433965;32;35929;-77
2021/12/15 04:29:29;;;;;;;39.00;20.52;;;;;;;2.44;71.66;100977.31;4433737;32;35094;-78
2021/12/15 04:32:40;;;;;;;34.97;19.20;;;;;;;2.10;72.26;100973.28;4432900;32;34011;-78
2021/12/15 04:35:28;;;;;;;42.67;20.65;;;;;;;2.02;72.24;100977.06;4430813;32;35497;-78
2021/12/15 04:38:15;;;;;;;36.42;20.62;;;;;;;2.07;72.23;100985.34;4434313;32;34951;-78
2021/12/15 04:41:04;;;;;;;35.58;19.75;;;;;;;2.10;72.21;100994.91;4432441;32;34634;-78
2021/12/15 04:43:58;;;;;;;37.45;19.92;;;;;;;2.22;71.94;101007.50;4432816;32;34305;-78
2021/12/15 04:46:58;;;;;;;40.30;20.92;;;;;;;2.42;70.80;101001.88;4429510;32;33569;-77
2021/12/15 04:49:48;;;;;;;37.88;20.67;;;;;;;1.99;72.21;101004.56;4433409;32;34984;-77
2021/12/15 04:52:34;;;;;;;39.80;21.27;;;;;;;1.96;72.38;101005.00;4432671;32;34506;-78
2021/12/15 04:55:21;;;;;;;40.60;21.20;;;;;;;1.95;73.11;101000.66;4422072;32;34174;-77
2021/12/15 04:58:11;;;;;;;43.87;22.17;;;;;;;1.74;73.75;100997.28;4434447;32;35618;-77
2021/12/15 05:01:01;;;;;;;38.15;20.60;;;;;;;1.97;73.42;101002.09;4433016;32;35076;-77
2021/12/15 05:03:47;;;;;;;35.38;19.00;;;;;;;1.73;74.59;101003.72;4430665;32;35226;-77
2021/12/15 05:06:34;;;;;;;35.10;19.50;;;;;;;2.17;73.33;101001.91;4427725;32;34940;-77
2021/12/15 05:09:21;;;;;;;38.00;20.10;;;;;;;2.44;72.11;101002.47;4433448;32;34506;-77
2021/12/15 05:12:09;;;;;;;37.65;19.65;;;;;;;1.84;73.10;101013.00;4430609;32;34967;-77
2021/12/15 05:14:55;;;;;;;34.90;19.55;;;;;;;2.08;73.16;101027.59;4433700;32;34547;-77
2021/12/15 05:17:41;;;;;;;33.10;18.35;;;;;;;2.10;73.12;101030.06;4430707;32;34828;-77
2021/12/15 05:20:28;;;;;;;36.88;19.25;;;;;;;2.45;71.90;101022.25;4434611;32;34469;-76
2021/12/15 05:23:18;;;;;;;36.97;19.15;;;;;;;2.01;73.13;101035.72;4433576;32;35935;-77
2021/12/15 05:26:04;;;;;;;35.10;19.08;;;;;;;2.35;72.08;101025.47;4428447;32;34552;-77
2021/12/15 05:28:51;;;;;;;35.50;18.70;;;;;;;2.30;71.83;101021.75;4431045;32;32866;-77
2021/12/15 05:31:39;;;;;;;43.50;21.35;;;;;;;1.99;72.20;101031.59;4428383;32;34650;-77
2021/12/15 05:34:26;;;;;;;37.08;21.00;;;;;;;1.63;73.52;101037.69;4432616;32;36000;-77
2021/12/15 05:37:13;;;;;;;41.30;21.50;;;;;;;1.93;72.78;101037.88;4431837;32;34476;-77
2021/12/15 05:40:03;;;;;;;43.70;22.42;;;;;;;1.87;72.50;101044.16;4433965;32;34294;-76
2021/12/15 05:42:50;;;;;;;40.60;22.13;;;;;;;1.72;73.25;101039.91;4433479;32;35197;-77
2021/12/15 05:45:39;;;;;;;40.35;22.23;;;;;;;1.82;72.78;101044.00;4432118;32;34586;-76
2021/12/15 05:48:25;;;;;;;42.90;21.45;;;;;;;2.03;72.39;101043.63;4434179;32;34432;-77
2021/12/15 05:51:11;;;;;;;44.63;22.80;;;;;;;1.98;72.58;101056.97;4429793;32;34155;-77
2021/12/15 05:53:57;;;;;;;38.97;20.92;;;;;;;1.56;73.77;101059.31;4428685;32;34269;-77
2021/12/15 05:56:44;;;;;;;41.88;22.80;;;;;;;1.23;75.53;101063.03;4431046;32;35558;-78
2021/12/15 05:59:30;;;;;;;38.80;21.08;;;;;;;1.34;75.67;101062.38;4427551;32;35675;-77
2021/12/15 06:02:17;;;;;;;41.67;20.40;;;;;;;1.86;73.74;101072.25;4433986;32;34832;-74
2021/12/15 06:05:04;;;;;;;37.38;20.48;;;;;;;2.22;72.22;101075.09;4433007;32;35547;-74
2021/12/15 06:07:51;;;;;;;37.33;21.35;;;;;;;2.05;72.15;101083.94;4435459;32;35121;-75
2021/12/15 06:10:39;;;;;;;39.05;20.20;;;;;;;1.85;73.07;101075.97;4436763;32;34619;-75
2021/12/15 06:13:29;;;;;;;42.20;20.65;;;;;;;1.68;73.71;101079.22;4435784;32;35152;-75
2021/12/15 06:16:21;;;;;;;41.10;21.23;;;;;;;1.60;74.67;101093.00;4436124;32;34586;-76
2021/12/15 06:19:07;;;;;;;38.20;19.77;;;;;;;1.66;74.82;101099.41;4436347;32;35032;-77
2021/12/15 06:21:53;;;;;;;42.00;21.87;;;;;;;1.52;74.52;101104.03;4437819;32;34735;-76
2021/12/15 06:24:39;;;;;;;37.50;21.55;;;;;;;1.87;73.05;101103.62;4436680;32;34171;-77
2021/12/15 06:27:29;;;;;;;41.28;20.67;;;;;;;1.76;73.21;101111.37;4436441;32;34319;-77
2021/12/15 06:30:15;;;;;;;42.70;20.52;;;;;;;2.05;72.12;101106.44;4435645;32;34940;-77
2021/12/15 06:33:02;;;;;;;39.67;21.87;;;;;;;2.01;72.41;101103.31;4435922;32;34269;-77
2021/12/15 06:35:57;;;;;;;38.92;20.10;;;;;;;2.27;71.13;101109.59;4436157;32;35197;-77
2021/12/15 06:38:45;;;;;;;39.90;21.67;;;;;;;2.27;71.33;101109.59;4433953;32;35443;-76
2021/12/15 06:41:36;;;;;;;47.05;23.02;;;;;;;2.10;71.26;101111.16;4434028;32;34993;-76
2021/12/15 06:44:22;;;;;;;42.30;21.17;;;;;;;1.20;73.95;101112.06;4434777;32;34693;-76
2021/12/15 06:59:12;;;;;;;62.10;32.05;;;;;;;-0.93;87.59;101125.34;4436871;32;34478;-76
2021/12/15 07:02:00;;;;;;;107.45;49.72;;;;;;;-0.17;84.04;101129.78;4435304;32;34733;-76
2021/12/15 07:04:49;;;;;;;99.65;44.05;;;;;;;-0.17;84.38;101127.09;4436647;32;34906;-76
2021/12/15 07:07:37;;;;;;;52.60;28.27;;;;;;;-0.32;83.51;101132.63;4436354;32;35454;-76
2021/12/15 07:10:28;;;;;;;54.67;27.05;;;;;;;-0.15;83.00;101141.16;4437669;32;35274;-76
2021/12/15 07:13:16;;;;;;;52.03;26.33;;;;;;;0.81;79.89;101143.50;4438768;32;35502;-76
2021/12/15 07:16:07;;;;;;;54.67;27.95;;;;;;;0.67;79.92;101142.69;4438173;32;35937;-76
2021/12/15 07:19:17;;;;;;;51.05;27.65;;;;;;;1.24;77.69;101143.00;4438571;32;35478;-76
2021/12/15 07:22:16;;;;;;;71.62;37.33;;;;;;;1.67;75.07;101137.00;4435633;32;34198;-75
2021/12/15 07:25:06;;;;;;;64.82;35.10;;;;;;;1.73;74.11;101140.72;4437973;32;35566;-76
2021/12/15 07:27:52;;;;;;;64.37;33.95;;;;;;;1.67;74.66;101145.09;4438976;32;34962;-76
2021/12/15 07:30:41;;;;;;;63.78;31.92;;;;;;;0.11;80.42;101147.62;4438892;32;34742;-76
2021/12/15 07:33:27;;;;;;;61.08;31.75;;;;;;;0.02;83.50;101143.47;4438871;32;34850;-76
2021/12/15 07:36:16;;;;;;;63.15;30.80;;;;;;;-0.39;84.21;101147.94;4437453;32;35518;-76
2021/12/15 07:39:02;;;;;;;62.60;30.70;;;;;;;-0.70;88.96;101145.75;4438952;32;34963;-76
2021/12/15 07:41:52;;;;;;;68.90;33.42;;;;;;;-0.17;88.27;101145.94;4439114;32;34616;-76
2021/12/15 07:44:38;;;;;;;67.40;30.62;;;;;;;0.76;83.42;101154.09;4438460;32;35259;-76
2021/12/15 07:47:28;;;;;;;58.67;27.50;;;;;;;-0.03;86.49;101153.03;4438975;32;34693;-76
2021/12/15 07:50:15;;;;;;;62.62;28.58;;;;;;;-0.37;90.78;101150.41;4438707;32;35730;-76
2021/12/15 07:53:02;;;;;;;63.85;29.80;;;;;;;-0.14;89.06;101156.31;4438536;32;35734;-76
2021/12/15 07:55:50;;;;;;;68.03;29.12;;;;;;;-0.37;90.45;101153.09;4436246;32;34676;-75
2021/12/15 07:58:42;;;;;;;86.32;37.38;;;;;;;-0.81;94.61;101157.06;4437170;32;34582;-74
2021/12/15 08:01:29;;;;;;;107.93;36.17;;;;;;;-1.53;99.89;101166.31;4434679;32;34925;-80
2021/12/15 08:04:15;;;;;;;83.95;37.47;;;;;;;-0.89;100.00;101168.00;4436103;32;35569;-81
2021/12/15 08:07:01;;;;;;;126.62;40.92;;;;;;;-0.48;97.94;101176.91;4437734;32;33981;-75
2021/12/15 08:09:49;;;;;;;106.20;37.70;;;;;;;-0.77;97.76;101187.91;4437098;32;35506;-76
2021/12/15 08:12:35;;;;;;;98.22;38.25;;;;;;;-0.02;97.25;101186.19;4438304;32;35080;-76
2021/12/15 08:15:22;;;;;;;106.78;46.05;;;;;;;-0.84;100.00;101187.06;4436888;32;34704;-76
2021/12/15 08:18:09;;;;;;;89.00;35.95;;;;;;;-0.64;100.00;101193.37;4438406;32;35151;-76
2021/12/15 08:20:55;;;;;;;105.10;35.10;;;;;;;-0.45;100.00;101199.91;4435858;32;35725;-76
2021/12/15 08:23:42;;;;;;;131.75;42.20;;;;;;;-1.08;100.00;101208.03;4436907;32;35887;-76
2021/12/15 08:26:28;;;;;;;148.93;37.85;;;;;;;-1.15;100.00;101205.28;4436186;32;35476;-76
2021/12/15 08:29:14;;;;;;;164.95;45.90;;;;;;;-0.89;100.00;101214.56;4437424;32;35339;-76
2021/12/15 08:32:03;;;;;;;226.25;52.42;;;;;;;-1.20;100.00;101213.09;4432419;32;34684;-74
2021/12/15 08:34:49;;;;;;;212.50;47.42;;;;;;;-0.92;100.00;101229.22;4436857;32;33430;-75
2021/12/15 08:37:37;;;;;;;212.85;48.10;;;;;;;-0.70;100.00;101226.50;4439328;32;34727;-78
2021/12/15 08:40:25;;;;;;;256.30;55.22;;;;;;;-0.85;100.00;101237.37;4434705;32;34206;-72
2021/12/15 08:43:12;;;;;;;125.60;44.28;;;;;;;-0.98;100.00;101232.72;4434269;32;35492;-77
2021/12/15 08:46:12;;;;;;;146.37;47.13;;;;;;;-0.50;100.00;101232.00;4432476;32;34886;-77
2021/12/15 08:48:59;;;;;;;261.92;56.58;;;;;;;0.29;100.00;101222.53;4435284;32;34911;-77
2021/12/15 08:51:47;;;;;;;144.95;43.60;;;;;;;-0.67;100.00;101231.47;4436830;32;34412;-76
2021/12/15 08:54:33;;;;;;;178.85;49.22;;;;;;;0.43;100.00;101222.34;4435793;32;34323;-77
2021/12/15 08:57:20;;;;;;;134.30;46.17;;;;;;;-0.04;100.00;101224.09;4433685;32;34971;-74
2021/12/15 09:00:08;;;;;;;152.23;47.22;;;;;;;0.70;100.00;101227.78;4433445;32;34676;-74
2021/12/15 09:02:55;;;;;;;263.98;60.47;;;;;;;0.20;100.00;101222.72;4437917;32;34357;-74
2021/12/15 09:05:42;;;;;;;242.43;55.85;;;;;;;-0.54;100.00;101225.31;4436944;32;34735;-75
2021/12/15 09:08:29;;;;;;;177.23;50.83;;;;;;;-0.63;100.00;101227.34;4435935;32;36017;-74
2021/12/15 09:11:19;;;;;;;175.80;53.17;;;;;;;-0.12;100.00;101228.84;4437427;32;35494;-75
2021/12/15 09:14:06;;;;;;;280.90;65.30;;;;;;;-0.16;100.00;101225.72;4437049;32;35213;-74
2021/12/15 09:16:56;;;;;;;214.60;56.58;;;;;;;-0.43;100.00;101230.16;4436281;32;34621;-74
2021/12/15 09:19:43;;;;;;;153.18;53.65;;;;;;;-0.47;100.00;101216.25;4436125;32;34911;-74
2021/12/15 09:22:29;;;;;;;134.55;49.25;;;;;;;0.28;100.00;101221.69;4435260;32;34726;-76
2021/12/15 09:25:15;;;;;;;138.80;50.17;;;;;;;0.24;100.00;101216.94;4432650;32;34050;-74
2021/12/15 09:28:03;;;;;;;126.90;49.20;;;;;;;0.28;100.00;101215.47;4435635;32;34737;-75
2021/12/15 09:30:50;;;;;;;137.80;50.65;;;;;;;0.30;100.00;101216.09;4436852;32;35919;-75
2021/12/15 09:33:38;;;;;;;133.80;53.55;;;;;;;0.08;100.00;101218.12;4437850;32;34569;-74
2021/12/15 09:36:26;;;;;;;122.93;49.60;;;;;;;-0.01;100.00;101217.47;4438358;32;35184;-74
2021/12/15 09:39:18;;;;;;;124.30;52.25;;;;;;;0.17;100.00;101217.75;4438409;32;35583;-75
2021/12/15 09:57:46;;;;;;;86.12;40.03;;;;;;;1.66;99.90;101211.00;4435286;32;35398;-81
2021/12/15 10:04:13;;;;;;;65.82;33.50;;;;;;;1.53;99.09;101209.16;4432479;32;34334;-78
2021/12/15 10:19:05;;;;;;;71.50;38.08;;;;;;;1.79;95.05;101213.66;4432685;32;34984;-75
2021/12/15 10:22:33;;;;;;;103.53;56.17;;;;;;;2.44;94.61;101213.50;4431778;32;35485;-74
2021/12/15 10:25:45;;;;;;;51.05;28.02;;;;;;;1.96;94.81;101208.59;4427598;32;89527;-77
2021/12/15 10:28:33;;;;;;;50.83;27.87;;;;;;;2.80;90.51;101216.56;4430131;32;34620;-77
2021/12/15 10:31:27;;;;;;;64.50;36.33;;;;;;;2.50;91.02;101210.97;4433388;32;34883;-77
2021/12/15 10:34:14;;;;;;;58.85;33.70;;;;;;;2.52;91.43;101215.12;4419022;32;34668;-77
2021/12/15 10:37:20;;;;;;;47.92;27.95;;;;;;;2.30;92.22;101219.22;4431335;32;34176;-75
2021/12/15 10:40:17;;;;;;;47.60;26.05;;;;;;;2.14;93.20;101218.69;4429361;32;34379;-77
2021/12/15 10:43:04;;;;;;;48.72;27.23;;;;;;;2.87;90.42;101220.03;4430395;32;34565;-77
2021/12/15 10:46:01;;;;;;;50.28;26.52;;;;;;;2.68;90.99;101214.59;4435511;32;35733;-75
2021/12/15 10:48:55;;;;;;;49.35;26.45;;;;;;;2.88;90.80;101221.72;4436406;32;34079;-74
2021/12/15 10:51:53;;;;;;;45.97;26.45;;;;;;;2.91;89.66;101207.72;4434789;32;34580;-76
2021/12/15 10:54:46;;;;;;;45.35;25.75;;;;;;;2.95;89.15;101208.94;4432857;32;35018;-73
2021/12/15 10:57:38;;;;;;;47.33;26.00;;;;;;;2.56;91.23;101213.66;4434820;32;34650;-78
2021/12/15 11:00:35;;;;;;;52.05;25.95;;;;;;;3.33;87.08;101219.63;4438171;32;35009;-78
2021/12/15 11:03:32;;;;;;;45.40;24.60;;;;;;;3.75;85.65;101213.50;4440504;32;35304;-78
2021/12/15 11:06:37;;;;;;;44.63;24.67;;;;;;;3.92;83.99;101211.84;4438254;32;34575;-78
2021/12/15 11:09:25;;;;;;;46.58;24.98;;;;;;;3.67;84.29;101211.97;4436911;32;34730;-72
2021/12/15 11:12:15;;;;;;;45.03;25.92;;;;;;;4.34;82.44;101203.75;4433893;32;33965;-74
2021/12/15 11:15:40;;;;;;;41.55;25.02;;;;;;;3.51;84.63;101210.66;4432285;32;35657;-74
2021/12/15 11:18:31;;;;;;;42.10;23.35;;;;;;;3.69;84.85;101211.72;4435509;32;35993;-75
2021/12/15 11:21:17;;;;;;;40.88;22.95;;;;;;;4.16;83.19;101211.97;4430197;32;35239;-74
2021/12/15 11:24:11;;;;;;;42.70;22.87;;;;;;;3.65;84.30;101216.78;4435721;32;34331;-75
2021/12/15 11:27:15;;;;;;;43.70;24.00;;;;;;;3.83;83.49;101210.50;4437161;32;35466;-75
2021/12/15 11:30:01;;;;;;;42.50;24.45;;;;;;;4.43;81.82;101204.25;4435875;32;34877;-78
2021/12/15 11:32:50;;;;;;;46.78;25.52;;;;;;;4.87;79.15;101202.09;4435743;32;35151;-76
2021/12/15 11:35:40;;;;;;;45.12;24.37;;;;;;;3.98;82.31;101208.19;4437387;32;35122;-76
2021/12/15 11:38:29;;;;;;;48.67;26.33;;;;;;;4.33;81.58;101204.81;4433545;32;34641;-75
2021/12/15 11:41:43;;;;;;;45.83;26.20;;;;;;;4.32;81.37;101202.31;4436683;32;34935;-75
2021/12/15 11:44:30;;;;;;;53.78;28.25;;;;;;;3.74;83.57;101203.72;4436786;32;34501;-74
2021/12/15 11:47:22;;;;;;;90.32;47.30;;;;;;;4.46;81.33;101204.59;4431599;32;34310;-75
2021/12/15 11:50:19;;;;;;;121.87;59.30;;;;;;;3.49;84.40;101209.22;4436917;32;34373;-76
2021/12/15 11:53:05;;;;;;;83.30;40.72;;;;;;;3.47;85.59;101201.34;4434775;32;34707;-74
2021/12/15 11:55:52;;;;;;;88.45;42.75;;;;;;;3.87;84.24;101192.72;4432947;32;35439;-78
2021/12/15 11:58:38;;;;;;;49.08;25.48;;;;;;;3.99;83.60;101200.91;4431730;32;35197;-77
2021/12/15 12:01:45;;;;;;;47.13;26.05;;;;;;;4.25;82.09;101191.56;4430958;32;33405;-76
2021/12/15 12:04:35;;;;;;;45.47;24.27;;;;;;;4.12;82.05;101192.56;4433555;32;35040;-75
2021/12/15 12:07:27;;;;;;;44.88;24.02;;;;;;;4.88;79.26;101191.00;4432587;32;34351;-75
2021/12/15 12:10:24;;;;;;;74.82;36.97;;;;;;;4.40;80.50;101191.16;4432418;32;35255;-77
2021/12/15 12:13:25;;;;;;;74.15;37.67;;;;;;;3.88;82.72;101185.41;4430609;32;34573;-77
2021/12/15 12:16:12;;;;;;;47.07;27.13;;;;;;;4.35;81.36;101182.87;4431534;32;34562;-75
2021/12/15 12:18:58;;;;;;;48.55;25.45;;;;;;;4.12;81.66;101180.91;4434112;32;35533;-75
2021/12/15 12:21:47;;;;;;;64.12;33.80;;;;;;;4.45;80.67;101181.25;4433198;32;34858;-75
2021/12/15 12:24:34;;;;;;;67.53;37.15;;;;;;;4.20;80.69;101173.28;4432530;32;34260;-74
2021/12/15 12:27:22;;;;;;;49.38;27.42;;;;;;;4.69;79.23;101176.66;4432029;32;35979;-75
2021/12/15 12:30:12;;;;;;;61.28;31.15;;;;;;;4.12;80.76;101176.31;4434613;32;36045;-76
2021/12/15 12:32:59;;;;;;;46.80;26.92;;;;;;;4.76;79.05;101182.00;4433796;32;35116;-75
2021/12/15 12:35:52;;;;;;;65.32;37.15;;;;;;;3.83;81.63;101188.81;4435050;32;34575;-76
2021/12/15 12:38:47;;;;;;;48.65;26.48;;;;;;;3.84;82.64;101185.03;4435058;32;34536;-76
2021/12/15 12:41:48;;;;;;;44.67;23.98;;;;;;;4.40;80.95;101183.81;4433264;32;34761;-75
2021/12/15 12:44:43;;;;;;;42.58;23.25;;;;;;;4.91;78.14;101195.94;4428636;32;33393;-76
2021/12/15 12:47:39;;;;;;;43.72;23.98;;;;;;;4.41;79.61;101185.50;4431485;32;34515;-76
2021/12/15 12:50:53;;;;;;;41.55;23.48;;;;;;;4.98;76.99;101185.00;4430904;32;35008;-76
2021/12/15 13:00:08;;;;;;;36.05;20.15;;;;;;;4.14;80.47;101187.75;4434346;32;34632;-76
2021/12/15 13:03:01;;;;;;;35.60;21.40;;;;;;;5.29;75.67;101181.03;4433435;32;35075;-75
2021/12/15 13:05:57;;;;;;;36.35;21.40;;;;;;;4.71;76.96;101179.16;4431900;32;35065;-76
2021/12/15 13:08:46;;;;;;;37.85;20.33;;;;;;;4.25;79.75;101172.59;4431421;32;33776;-77
2021/12/15 13:11:36;;;;;;;38.70;20.40;;;;;;;5.63;74.90;101170.34;4431964;32;34413;-77
2021/12/15 13:14:38;;;;;;;37.22;20.70;;;;;;;5.02;75.72;101163.59;4433745;32;34870;-78
2021/12/15 13:17:29;;;;;;;53.35;26.15;;;;;;;4.73;76.65;101161.59;4434289;32;34595;-78
2021/12/15 13:20:28;;;;;;;70.18;34.05;;;;;;;5.91;72.74;101163.28;4434765;32;34203;-78
2021/12/15 13:23:37;;;;;;;54.42;27.80;;;;;;;5.00;75.39;101171.97;4435902;32;34263;-78
2021/12/15 13:29:52;;;;;;;35.70;19.00;;;;;;;4.40;77.38;101164.81;4436510;32;35143;-78
2021/12/15 13:32:46;;;;;;;35.60;18.67;;;;;;;4.61;76.66;101160.75;4434933;32;34237;-78
2021/12/15 13:35:49;;;;;;;30.98;16.65;;;;;;;5.15;75.04;101166.91;4436607;32;35583;-78
2021/12/15 13:38:39;;;;;;;29.25;15.48;;;;;;;3.96;78.36;101171.53;4435465;32;33825;-78
2021/12/15 13:44:35;;;;;;;28.70;15.50;;;;;;;3.69;79.94;101180.00;4435707;32;34448;-78
2021/12/15 13:47:24;;;;;;;29.17;15.23;;;;;;;4.26;77.28;101176.94;4436114;32;34606;-78
2021/12/15 13:50:17;;;;;;;29.58;17.23;;;;;;;3.64;78.97;101184.47;4424347;32;34949;-78
2021/12/15 13:53:03;;;;;;;29.35;15.30;;;;;;;2.99;81.74;101183.09;4433970;32;34701;-78
2021/12/15 13:55:50;;;;;;;31.05;17.33;;;;;;;3.44;80.74;101190.94;4435913;32;34263;-78
2021/12/15 13:58:36;;;;;;;30.52;15.90;;;;;;;3.01;82.26;101186.37;4435594;32;34642;-78
2021/12/15 14:01:22;;;;;;;33.75;18.77;;;;;;;3.18;81.72;101189.34;4434007;32;34917;-78
2021/12/15 14:04:09;;;;;;;49.38;18.67;;;;;;;2.91;82.64;101196.91;4435450;32;34421;-78
2021/12/15 14:06:56;;;;;;;29.58;16.37;;;;;;;2.82;83.34;101195.53;4435546;32;35216;-78
2021/12/15 14:09:45;;;;;;;33.58;17.98;;;;;;;2.69;84.33;101194.56;4435529;32;34575;-77
2021/12/15 14:12:49;;;;;;;33.03;17.80;;;;;;;2.67;83.99;101191.25;4434457;32;34674;-78
2021/12/15 14:15:37;;;;;;;32.75;17.73;;;;;;;2.73;84.29;101197.66;4435748;32;35565;-78
2021/12/15 14:18:27;;;;;;;30.95;17.70;;;;;;;2.77;83.78;101200.78;4435924;32;34307;-78
2021/12/15 14:21:16;;;;;;;36.85;18.45;;;;;;;2.72;84.34;101197.91;4422509;32;34272;-78
2021/12/15 14:24:03;;;;;;;31.48;19.27;;;;;;;2.98;83.45;101197.66;4434808;32;36047;-78
2021/12/15 14:27:02;;;;;;;31.60;18.40;;;;;;;2.62;84.58;101204.62;4435905;32;34685;-78
2021/12/15 14:29:52;;;;;;;36.38;19.42;;;;;;;2.83;84.60;101200.72;4435969;32;35072;-78